ADDS TAF Data INFO
IDs: Format: Raw Decoded Include METARs

Data at: 1812 UTC 24 Jun 2018

KINK 241753Z AUTO 24011G17KT 200V260 10SM CLR 39/07 A2978 RMK AO2 SLP026 T03890072 10394 20250 58006 $

KINK 241725Z 2418/2518 24017G27KT P6SM SKC
  FM250100 16016G26KT P6SM SKC
  FM251200 05015G25KT P6SM SKC